sensor_id;sensor_type;location;lat;lon;timestamp;pressure;altitude;pressure_sealevel;temperature;humidity
13407;BME280;6774;48.208;10.766;2022-11-11T00:01:48;96956.91;;;4.06;86.16
13407;BME280;6774;48.208;10.766;2022-11-11T00:04:34;96955.94;;;3.83;85.27
13407;BME280;6774;48.208;10.766;2022-11-11T00:07:21;96955.75;;;3.86;86.02
13407;BME280;6774;48.208;10.766;2022-11-11T00:10:08;96943.84;;;3.82;86.46
13407;BME280;6774;48.208;10.766;2022-11-11T00:12:58;96945.28;;;3.86;86.03
13407;BME280;6774;48.208;10.766;2022-11-11T00:15:46;96938.19;;;3.88;86.25
13407;BME280;6774;48.208;10.766;2022-11-11T00:18:33;96942.44;;;3.89;86.16
13407;BME280;6774;48.208;10.766;2022-11-11T00:21:37;96940.34;;;3.94;86.25
13407;BME280;6774;48.208;10.766;2022-11-11T00:24:50;96947.13;;;3.96;86.44
13407;BME280;6774;48.208;10.766;2022-11-11T00:27:56;96939.88;;;4.00;85.92
13407;BME280;6774;48.208;10.766;2022-11-11T00:30:44;96944.16;;;4.01;86.64
13407;BME280;6774;48.208;10.766;2022-11-11T00:33:31;96944.63;;;3.95;87.06
13407;BME280;6774;48.208;10.766;2022-11-11T00:36:18;96957.34;;;3.99;86.72
13407;BME280;6774;48.208;10.766;2022-11-11T00:39:03;96953.50;;;3.92;87.23
13407;BME280;6774;48.208;10.766;2022-11-11T00:41:49;96956.38;;;4.00;86.63
13407;BME280;6774;48.208;10.766;2022-11-11T00:44:36;96952.94;;;4.00;86.86
13407;BME280;6774;48.208;10.766;2022-11-11T00:47:25;96939.69;;;4.03;86.28
13407;BME280;6774;48.208;10.766;2022-11-11T00:50:29;96941.63;;;4.12;86.73
13407;BME280;6774;48.208;10.766;2022-11-11T00:53:33;96935.09;;;4.18;86.37
13407;BME280;6774;48.208;10.766;2022-11-11T00:56:22;96935.38;;;4.02;86.11
13407;BME280;6774;48.208;10.766;2022-11-11T00:59:09;96929.56;;;3.98;85.79
13407;BME280;6774;48.208;10.766;2022-11-11T01:01:55;96937.00;;;3.92;86.30
13407;BME280;6774;48.208;10.766;2022-11-11T01:04:43;96937.94;;;3.91;86.19
13407;BME280;6774;48.208;10.766;2022-11-11T01:07:33;96943.50;;;3.86;86.66
13407;BME280;6774;48.208;10.766;2022-11-11T01:10:20;96948.84;;;3.85;86.43
13407;BME280;6774;48.208;10.766;2022-11-11T01:13:23;96935.69;;;3.86;86.52
13407;BME280;6774;48.208;10.766;2022-11-11T01:16:12;96937.94;;;3.91;86.59
13407;BME280;6774;48.208;10.766;2022-11-11T01:18:59;96936.03;;;3.93;86.60
13407;BME280;6774;48.208;10.766;2022-11-11T01:21:47;96934.03;;;3.85;86.43
13407;BME280;6774;48.208;10.766;2022-11-11T01:24:35;96942.06;;;3.82;86.28
13407;BME280;6774;48.208;10.766;2022-11-11T01:27:22;96949.00;;;3.70;86.74
13407;BME280;6774;48.208;10.766;2022-11-11T01:30:09;96951.00;;;3.67;87.04
13407;BME280;6774;48.208;10.766;2022-11-11T01:32:59;96934.78;;;3.75;86.96
13407;BME280;6774;48.208;10.766;2022-11-11T01:35:45;96938.84;;;3.79;86.33
13407;BME280;6774;48.208;10.766;2022-11-11T01:38:34;96935.13;;;3.70;86.06
13407;BME280;6774;48.208;10.766;2022-11-11T01:41:23;96939.50;;;3.69;86.10
13407;BME280;6774;48.208;10.766;2022-11-11T01:44:42;96927.16;;;3.71;86.71
13407;BME280;6774;48.208;10.766;2022-11-11T01:47:29;96930.72;;;3.70;86.83
13407;BME280;6774;48.208;10.766;2022-11-11T01:50:57;96936.34;;;3.77;86.67
13407;BME280;6774;48.208;10.766;2022-11-11T01:53:44;96944.66;;;3.82;86.49
13407;BME280;6774;48.208;10.766;2022-11-11T01:56:34;96942.41;;;3.78;87.13
13407;BME280;6774;48.208;10.766;2022-11-11T01:59:22;96943.00;;;3.81;87.04
13407;BME280;6774;48.208;10.766;2022-11-11T02:02:15;96944.78;;;3.81;86.72
13407;BME280;6774;48.208;10.766;2022-11-11T02:05:04;96947.63;;;3.78;86.08
13407;BME280;6774;48.208;10.766;2022-11-11T02:08:27;96945.72;;;3.80;86.10
13407;BME280;6774;48.208;10.766;2022-11-11T02:11:20;96948.63;;;3.88;86.09
13407;BME280;6774;48.208;10.766;2022-11-11T02:14:22;96950.28;;;3.89;85.96
13407;BME280;6774;48.208;10.766;2022-11-11T02:17:30;96946.44;;;3.82;86.06
13407;BME280;6774;48.208;10.766;2022-11-11T02:20:21;96954.50;;;3.79;86.35
13407;BME280;6774;48.208;10.766;2022-11-11T02:23:12;96949.28;;;3.79;86.63
13407;BME280;6774;48.208;10.766;2022-11-11T02:26:03;96948.44;;;3.78;86.23
13407;BME280;6774;48.208;10.766;2022-11-11T02:28:52;96943.78;;;3.70;86.25
13407;BME280;6774;48.208;10.766;2022-11-11T02:31:39;96952.56;;;3.69;85.89
13407;BME280;6774;48.208;10.766;2022-11-11T02:34:31;96962.28;;;3.67;86.52
13407;BME280;6774;48.208;10.766;2022-11-11T02:37:22;96956.31;;;3.65;86.37
13407;BME280;6774;48.208;10.766;2022-11-11T02:40:11;96954.66;;;3.64;86.11
13407;BME280;6774;48.208;10.766;2022-11-11T02:43:00;96945.16;;;3.63;86.60
13407;BME280;6774;48.208;10.766;2022-11-11T02:45:46;96943.25;;;3.65;86.72
13407;BME280;6774;48.208;10.766;2022-11-11T02:48:34;96956.31;;;3.65;86.40
13407;BME280;6774;48.208;10.766;2022-11-11T02:51:20;96956.13;;;3.68;86.67
13407;BME280;6774;48.208;10.766;2022-11-11T02:54:07;96949.44;;;3.64;86.55
13407;BME280;6774;48.208;10.766;2022-11-11T02:56:54;96966.88;;;3.64;86.40
13407;BME280;6774;48.208;10.766;2022-11-11T02:59:58;96967.22;;;3.59;86.49
13407;BME280;6774;48.208;10.766;2022-11-11T03:02:45;96969.97;;;3.32;85.95
13407;BME280;6774;48.208;10.766;2022-11-11T03:05:32;96977.06;;;3.43;85.67
13407;BME280;6774;48.208;10.766;2022-11-11T03:08:19;96974.03;;;3.36;85.28
13407;BME280;6774;48.208;10.766;2022-11-11T03:11:06;96973.41;;;3.33;85.53
13407;BME280;6774;48.208;10.766;2022-11-11T03:13:52;96981.25;;;3.33;85.27
13407;BME280;6774;48.208;10.766;2022-11-11T03:16:40;96984.81;;;3.32;85.60
13407;BME280;6774;48.208;10.766;2022-11-11T03:19:44;96995.16;;;3.21;85.16
13407;BME280;6774;48.208;10.766;2022-11-11T03:22:31;97003.38;;;3.14;84.90
13407;BME280;6774;48.208;10.766;2022-11-11T03:25:38;97002.34;;;3.17;84.63
13407;BME280;6774;48.208;10.766;2022-11-11T03:28:26;97009.84;;;3.09;85.14
13407;BME280;6774;48.208;10.766;2022-11-11T03:31:12;97007.34;;;3.07;85.24
13407;BME280;6774;48.208;10.766;2022-11-11T03:34:00;97012.88;;;3.03;85.65
13407;BME280;6774;48.208;10.766;2022-11-11T03:37:01;97022.88;;;2.96;85.53
13407;BME280;6774;48.208;10.766;2022-11-11T03:40:06;97028.50;;;2.90;85.21
13407;BME280;6774;48.208;10.766;2022-11-11T03:42:53;97020.28;;;2.83;84.77
13407;BME280;6774;48.208;10.766;2022-11-11T03:45:48;97021.41;;;2.79;85.51
13407;BME280;6774;48.208;10.766;2022-11-11T03:48:35;97020.19;;;2.85;85.03
13407;BME280;6774;48.208;10.766;2022-11-11T03:51:23;97011.41;;;2.86;85.09
13407;BME280;6774;48.208;10.766;2022-11-11T03:54:10;97002.66;;;2.87;84.92
13407;BME280;6774;48.208;10.766;2022-11-11T03:56:57;96999.09;;;3.01;85.58
13407;BME280;6774;48.208;10.766;2022-11-11T04:00:04;97002.84;;;3.09;86.29
13407;BME280;6774;48.208;10.766;2022-11-11T04:03:04;96993.69;;;3.04;85.34
13407;BME280;6774;48.208;10.766;2022-11-11T04:06:09;96994.72;;;3.01;85.42
13407;BME280;6774;48.208;10.766;2022-11-11T04:09:14;97008.09;;;2.84;85.90
13407;BME280;6774;48.208;10.766;2022-11-11T04:12:19;97002.13;;;2.82;85.83
13407;BME280;6774;48.208;10.766;2022-11-11T04:15:06;96995.06;;;2.84;86.41
13407;BME280;6774;48.208;10.766;2022-11-11T04:18:11;96986.59;;;2.80;85.60
13407;BME280;6774;48.208;10.766;2022-11-11T04:20:57;96981.69;;;2.76;85.67
13407;BME280;6774;48.208;10.766;2022-11-11T04:24:02;96980.03;;;2.75;85.70
13407;BME280;6774;48.208;10.766;2022-11-11T04:27:11;96986.16;;;2.48;85.12
13407;BME280;6774;48.208;10.766;2022-11-11T04:29:57;96980.50;;;2.54;85.23
13407;BME280;6774;48.208;10.766;2022-11-11T04:32:44;96982.16;;;2.55;84.68
13407;BME280;6774;48.208;10.766;2022-11-11T04:35:32;96986.53;;;2.55;85.68
13407;BME280;6774;48.208;10.766;2022-11-11T04:38:18;96991.69;;;2.56;85.31
13407;BME280;6774;48.208;10.766;2022-11-11T04:41:22;96989.16;;;2.55;85.13
13407;BME280;6774;48.208;10.766;2022-11-11T04:44:30;96995.50;;;2.51;85.58
13407;BME280;6774;48.208;10.766;2022-11-11T04:47:35;96998.34;;;2.48;85.32
13407;BME280;6774;48.208;10.766;2022-11-11T04:50:21;96998.09;;;2.38;85.01
13407;BME280;6774;48.208;10.766;2022-11-11T04:53:10;97005.16;;;2.36;85.58
13407;BME280;6774;48.208;10.766;2022-11-11T04:55:57;97007.97;;;2.33;85.31
13407;BME280;6774;48.208;10.766;2022-11-11T04:59:01;97002.38;;;2.39;85.68
13407;BME280;6774;48.208;10.766;2022-11-11T05:02:06;97005.50;;;2.44;85.56
13407;BME280;6774;48.208;10.766;2022-11-11T05:05:10;97012.47;;;2.31;85.39
13407;BME280;6774;48.208;10.766;2022-11-11T05:07:57;97013.91;;;2.35;85.21
13407;BME280;6774;48.208;10.766;2022-11-11T05:11:00;97028.91;;;2.32;85.52
13407;BME280;6774;48.208;10.766;2022-11-11T05:13:47;97031.91;;;2.25;86.27
13407;BME280;6774;48.208;10.766;2022-11-11T05:16:53;97025.66;;;2.28;85.99
13407;BME280;6774;48.208;10.766;2022-11-11T05:19:58;97031.91;;;2.25;85.90
13407;BME280;6774;48.208;10.766;2022-11-11T05:23:02;97022.78;;;2.33;85.81
13407;BME280;6774;48.208;10.766;2022-11-11T05:25:48;97025.88;;;2.25;86.97
13407;BME280;6774;48.208;10.766;2022-11-11T05:28:34;97025.00;;;2.39;86.88
13407;BME280;6774;48.208;10.766;2022-11-11T05:31:20;97020.69;;;2.38;86.58
13407;BME280;6774;48.208;10.766;2022-11-11T05:34:07;97029.88;;;2.43;86.96
13407;BME280;6774;48.208;10.766;2022-11-11T05:36:55;97025.28;;;2.34;86.16
13407;BME280;6774;48.208;10.766;2022-11-11T05:39:41;97029.88;;;2.43;86.45
13407;BME280;6774;48.208;10.766;2022-11-11T05:42:28;97027.50;;;2.53;86.60
13407;BME280;6774;48.208;10.766;2022-11-11T05:45:14;97024.81;;;2.54;86.38
13407;BME280;6774;48.208;10.766;2022-11-11T05:48:02;97035.78;;;2.60;86.66
13407;BME280;6774;48.208;10.766;2022-11-11T05:50:48;97045.47;;;2.58;86.69
13407;BME280;6774;48.208;10.766;2022-11-11T05:53:36;97036.38;;;2.63;86.39
13407;BME280;6774;48.208;10.766;2022-11-11T05:56:23;97049.13;;;2.68;86.54
13407;BME280;6774;48.208;10.766;2022-11-11T05:59:10;97063.09;;;2.67;87.23
13407;BME280;6774;48.208;10.766;2022-11-11T06:01:57;97059.44;;;2.69;87.04
13407;BME280;6774;48.208;10.766;2022-11-11T06:04:43;97059.91;;;2.76;87.13
13407;BME280;6774;48.208;10.766;2022-11-11T06:07:30;97055.81;;;2.72;86.98
13407;BME280;6774;48.208;10.766;2022-11-11T06:10:18;97069.38;;;2.77;86.68
13407;BME280;6774;48.208;10.766;2022-11-11T06:13:16;97074.38;;;2.80;87.18
13407;BME280;6774;48.208;10.766;2022-11-11T06:16:03;97072.09;;;2.88;87.10
13407;BME280;6774;48.208;10.766;2022-11-11T06:18:50;97075.25;;;2.93;87.31
13407;BME280;6774;48.208;10.766;2022-11-11T06:21:37;97075.88;;;2.97;87.44
13407;BME280;6774;48.208;10.766;2022-11-11T06:24:38;97078.47;;;2.97;87.18
13407;BME280;6774;48.208;10.766;2022-11-11T06:27:26;97085.97;;;3.01;87.30
13407;BME280;6774;48.208;10.766;2022-11-11T06:30:13;97089.84;;;3.08;86.59
13407;BME280;6774;48.208;10.766;2022-11-11T06:33:20;97098.00;;;3.17;86.39
13407;BME280;6774;48.208;10.766;2022-11-11T06:36:09;97101.25;;;3.33;86.21
13407;BME280;6774;48.208;10.766;2022-11-11T06:38:56;97096.16;;;3.44;85.65
13407;BME280;6774;48.208;10.766;2022-11-11T06:41:43;97097.41;;;3.51;85.28
13407;BME280;6774;48.208;10.766;2022-11-11T06:44:31;97106.69;;;3.55;85.16
13407;BME280;6774;48.208;10.766;2022-11-11T06:47:17;97110.13;;;3.56;85.80
13407;BME280;6774;48.208;10.766;2022-11-11T06:50:05;97109.00;;;3.60;85.98
13407;BME280;6774;48.208;10.766;2022-11-11T06:52:51;97120.16;;;3.62;86.28
13407;BME280;6774;48.208;10.766;2022-11-11T06:55:39;97119.75;;;3.68;85.73
13407;BME280;6774;48.208;10.766;2022-11-11T06:58:26;97121.28;;;3.70;85.65
13407;BME280;6774;48.208;10.766;2022-11-11T07:01:14;97127.78;;;3.78;85.87
13407;BME280;6774;48.208;10.766;2022-11-11T07:04:01;97124.53;;;3.87;86.12
13407;BME280;6774;48.208;10.766;2022-11-11T07:06:47;97138.91;;;3.92;85.88
13407;BME280;6774;48.208;10.766;2022-11-11T07:09:34;97142.09;;;3.85;85.30
13407;BME280;6774;48.208;10.766;2022-11-11T07:12:21;97146.22;;;4.00;84.88
13407;BME280;6774;48.208;10.766;2022-11-11T07:15:08;97144.63;;;4.10;85.18
13407;BME280;6774;48.208;10.766;2022-11-11T07:17:56;97153.19;;;4.25;85.01
13407;BME280;6774;48.208;10.766;2022-11-11T07:20:42;97151.47;;;4.37;84.50
13407;BME280;6774;48.208;10.766;2022-11-11T07:23:29;97165.34;;;4.50;84.34
13407;BME280;6774;48.208;10.766;2022-11-11T07:26:16;97159.47;;;4.59;84.49
13407;BME280;6774;48.208;10.766;2022-11-11T07:29:02;97155.00;;;4.72;84.47
13407;BME280;6774;48.208;10.766;2022-11-11T07:31:49;97153.19;;;4.85;84.49
13407;BME280;6774;48.208;10.766;2022-11-11T07:34:37;97151.34;;;4.99;84.25
13407;BME280;6774;48.208;10.766;2022-11-11T07:37:24;97158.53;;;5.19;83.72
13407;BME280;6774;48.208;10.766;2022-11-11T07:40:12;97156.47;;;5.35;83.14
13407;BME280;6774;48.208;10.766;2022-11-11T07:42:59;97159.72;;;5.50;82.58
13407;BME280;6774;48.208;10.766;2022-11-11T07:45:46;97156.53;;;5.58;82.24
13407;BME280;6774;48.208;10.766;2022-11-11T07:48:32;97159.28;;;5.67;82.00
13407;BME280;6774;48.208;10.766;2022-11-11T07:51:20;97164.41;;;5.80;82.19
13407;BME280;6774;48.208;10.766;2022-11-11T07:54:07;97167.78;;;5.93;82.10
13407;BME280;6774;48.208;10.766;2022-11-11T07:56:54;97162.56;;;6.05;82.36
13407;BME280;6774;48.208;10.766;2022-11-11T07:59:40;97173.75;;;6.18;81.68
13407;BME280;6774;48.208;10.766;2022-11-11T08:02:27;97171.38;;;6.26;81.42
13407;BME280;6774;48.208;10.766;2022-11-11T08:05:14;97174.59;;;6.41;81.41
13407;BME280;6774;48.208;10.766;2022-11-11T08:08:03;97179.19;;;6.48;80.90
13407;BME280;6774;48.208;10.766;2022-11-11T08:10:52;97175.53;;;6.51;80.89
13407;BME280;6774;48.208;10.766;2022-11-11T08:13:39;97183.63;;;6.59;80.50
13407;BME280;6774;48.208;10.766;2022-11-11T08:16:25;97176.69;;;6.69;80.02
13407;BME280;6774;48.208;10.766;2022-11-11T08:19:12;97181.06;;;6.80;79.75
13407;BME280;6774;48.208;10.766;2022-11-11T08:21:58;97182.25;;;6.87;77.64
13407;BME280;6774;48.208;10.766;2022-11-11T08:24:46;97172.97;;;6.72;77.47
13407;BME280;6774;48.208;10.766;2022-11-11T08:27:55;97172.13;;;6.71;78.87
13407;BME280;6774;48.208;10.766;2022-11-11T08:30:42;97172.50;;;6.78;79.25
13407;BME280;6774;48.208;10.766;2022-11-11T08:33:29;97174.13;;;6.90;79.43
13407;BME280;6774;48.208;10.766;2022-11-11T08:36:18;97177.44;;;6.92;79.45
13407;BME280;6774;48.208;10.766;2022-11-11T08:39:06;97166.63;;;7.38;80.32
13407;BME280;6774;48.208;10.766;2022-11-11T08:41:54;97161.34;;;8.01;77.63
13407;BME280;6774;48.208;10.766;2022-11-11T08:44:40;97160.22;;;8.55;76.66
13407;BME280;6774;48.208;10.766;2022-11-11T08:47:27;97154.63;;;9.47;75.04
13407;BME280;6774;48.208;10.766;2022-11-11T08:50:13;97154.81;;;10.66;72.11
13407;BME280;6774;48.208;10.766;2022-11-11T08:53:00;97148.16;;;11.43;69.56
13407;BME280;6774;48.208;10.766;2022-11-11T08:55:46;97139.91;;;12.16;67.37
13407;BME280;6774;48.208;10.766;2022-11-11T08:58:34;97132.38;;;12.63;66.00
13407;BME280;6774;48.208;10.766;2022-11-11T09:01:21;97132.19;;;13.23;64.53
13407;BME280;6774;48.208;10.766;2022-11-11T09:04:08;97134.50;;;13.43;64.44
13407;BME280;6774;48.208;10.766;2022-11-11T09:07:14;97133.38;;;13.53;64.10
13407;BME280;6774;48.208;10.766;2022-11-11T09:10:01;97136.31;;;13.34;64.41
13407;BME280;6774;48.208;10.766;2022-11-11T09:12:48;97135.47;;;13.17;65.37
13407;BME280;6774;48.208;10.766;2022-11-11T09:15:36;97136.38;;;12.84;65.16
13407;BME280;6774;48.208;10.766;2022-11-11T09:18:22;97137.50;;;13.31;65.30
13407;BME280;6774;48.208;10.766;2022-11-11T09:21:09;97127.56;;;13.74;63.54
13407;BME280;6774;48.208;10.766;2022-11-11T09:23:55;97136.78;;;14.11;64.02
13407;BME280;6774;48.208;10.766;2022-11-11T09:26:46;97133.97;;;14.60;62.42
13407;BME280;6774;48.208;10.766;2022-11-11T09:29:32;97144.84;;;15.58;60.77
13407;BME280;6774;48.208;10.766;2022-11-11T09:32:20;97137.56;;;16.71;58.22
13407;BME280;6774;48.208;10.766;2022-11-11T09:35:07;97138.66;;;16.62;57.45
13407;BME280;6774;48.208;10.766;2022-11-11T09:37:53;97144.44;;;16.36;57.99
13407;BME280;6774;48.208;10.766;2022-11-11T09:40:50;97148.09;;;15.45;59.47
13407;BME280;6774;48.208;10.766;2022-11-11T09:43:44;97154.97;;;15.08;61.60
13407;BME280;6774;48.208;10.766;2022-11-11T09:46:36;97156.75;;;14.93;62.13
13407;BME280;6774;48.208;10.766;2022-11-11T09:49:43;97158.81;;;14.83;62.37
13407;BME280;6774;48.208;10.766;2022-11-11T09:52:37;97149.69;;;15.54;61.67
13407;BME280;6774;48.208;10.766;2022-11-11T09:55:30;97148.59;;;16.09;60.10
13407;BME280;6774;48.208;10.766;2022-11-11T09:58:20;97136.06;;;15.95;60.70
13407;BME280;6774;48.208;10.766;2022-11-11T10:01:12;97140.41;;;16.11;60.87
13407;BME280;6774;48.208;10.766;2022-11-11T10:04:03;97135.38;;;16.31;60.61
13407;BME280;6774;48.208;10.766;2022-11-11T10:06:56;97139.69;;;16.32;60.25
13407;BME280;6774;48.208;10.766;2022-11-11T10:09:50;97140.88;;;16.14;60.36
13407;BME280;6774;48.208;10.766;2022-11-11T10:12:41;97149.59;;;16.23;61.15
13407;BME280;6774;48.208;10.766;2022-11-11T10:15:34;97146.47;;;16.19;59.80
13407;BME280;6774;48.208;10.766;2022-11-11T10:18:39;97146.06;;;15.93;60.85
13407;BME280;6774;48.208;10.766;2022-11-11T10:21:35;97134.53;;;16.15;61.29
13407;BME280;6774;48.208;10.766;2022-11-11T10:24:49;97133.78;;;16.81;60.02
13407;BME280;6774;48.208;10.766;2022-11-11T10:27:40;97134.88;;;17.01;59.76
13407;BME280;6774;48.208;10.766;2022-11-11T10:30:30;97131.34;;;17.00;59.05
13407;BME280;6774;48.208;10.766;2022-11-11T10:33:19;97123.34;;;17.00;59.69
13407;BME280;6774;48.208;10.766;2022-11-11T10:36:14;97128.44;;;16.81;60.49
13407;BME280;6774;48.208;10.766;2022-11-11T10:39:04;97122.81;;;16.90;60.12
13407;BME280;6774;48.208;10.766;2022-11-11T10:41:52;97123.41;;;16.86;60.94
13407;BME280;6774;48.208;10.766;2022-11-11T10:44:41;97114.59;;;17.06;60.66
13407;BME280;6774;48.208;10.766;2022-11-11T10:47:37;97113.13;;;16.83;60.97
13407;BME280;6774;48.208;10.766;2022-11-11T10:50:30;97119.97;;;17.49;59.64
13407;BME280;6774;48.208;10.766;2022-11-11T10:53:28;97106.91;;;17.18;60.69
13407;BME280;6774;48.208;10.766;2022-11-11T10:56:20;97106.56;;;17.21;59.16
13407;BME280;6774;48.208;10.766;2022-11-11T10:59:16;97105.78;;;16.55;61.24
13407;BME280;6774;48.208;10.766;2022-11-11T11:02:10;97110.41;;;15.79;63.29
13407;BME280;6774;48.208;10.766;2022-11-11T11:05:02;97101.44;;;15.57;62.85
13407;BME280;6774;48.208;10.766;2022-11-11T11:07:54;97109.09;;;15.15;65.25
13407;BME280;6774;48.208;10.766;2022-11-11T11:10:45;97105.88;;;15.42;65.44
13407;BME280;6774;48.208;10.766;2022-11-11T11:13:39;97105.00;;;15.73;64.10
13407;BME280;6774;48.208;10.766;2022-11-11T11:16:31;97112.59;;;15.61;64.21
13407;BME280;6774;48.208;10.766;2022-11-11T11:19:21;97107.69;;;15.87;64.14
13407;BME280;6774;48.208;10.766;2022-11-11T11:22:07;97109.72;;;15.85;64.35
13407;BME280;6774;48.208;10.766;2022-11-11T11:25:08;97114.47;;;15.90;63.19
13407;BME280;6774;48.208;10.766;2022-11-11T11:28:06;97117.28;;;16.11;63.06
13407;BME280;6774;48.208;10.766;2022-11-11T11:31:01;97130.59;;;16.11;63.51
13407;BME280;6774;48.208;10.766;2022-11-11T11:33:51;97117.25;;;16.41;63.68
13407;BME280;6774;48.208;10.766;2022-11-11T11:36:40;97116.69;;;16.60;63.81
13407;BME280;6774;48.208;10.766;2022-11-11T11:39:32;97123.94;;;16.96;63.38
13407;BME280;6774;48.208;10.766;2022-11-11T11:42:30;97122.25;;;17.31;62.63
13407;BME280;6774;48.208;10.766;2022-11-11T11:45:23;97124.34;;;17.57;60.88
13407;BME280;6774;48.208;10.766;2022-11-11T11:48:21;97124.91;;;17.74;61.04
13407;BME280;6774;48.208;10.766;2022-11-11T11:51:27;97125.09;;;17.72;61.04
13407;BME280;6774;48.208;10.766;2022-11-11T11:54:32;97119.63;;;17.59;60.83
13407;BME280;6774;48.208;10.766;2022-11-11T11:57:34;97120.16;;;17.48;61.16
13407;BME280;6774;48.208;10.766;2022-11-11T12:00:28;97115.19;;;17.66;62.05
13407;BME280;6774;48.208;10.766;2022-11-11T12:03:54;97108.94;;;18.08;59.75
13407;BME280;6774;48.208;10.766;2022-11-11T12:06:54;97099.25;;;18.35;58.29
13407;BME280;6774;48.208;10.766;2022-11-11T12:09:55;97094.72;;;18.70;58.90
13407;BME280;6774;48.208;10.766;2022-11-11T12:12:49;97089.06;;;19.07;58.19
13407;BME280;6774;48.208;10.766;2022-11-11T12:15:41;97076.81;;;19.58;57.79
13407;BME280;6774;48.208;10.766;2022-11-11T12:18:50;97079.06;;;20.01;55.30
13407;BME280;6774;48.208;10.766;2022-11-11T12:21:57;97080.75;;;19.76;56.62
13407;BME280;6774;48.208;10.766;2022-11-11T12:24:50;97075.94;;;19.38;56.50
13407;BME280;6774;48.208;10.766;2022-11-11T12:27:49;97075.47;;;19.08;58.43
13407;BME280;6774;48.208;10.766;2022-11-11T12:30:47;97081.75;;;18.74;58.97
13407;BME280;6774;48.208;10.766;2022-11-11T12:34:05;97072.19;;;18.52;59.52
13407;BME280;6774;48.208;10.766;2022-11-11T12:37:00;97076.22;;;18.34;59.98
13407;BME280;6774;48.208;10.766;2022-11-11T12:39:59;97064.88;;;18.26;60.31
13407;BME280;6774;48.208;10.766;2022-11-11T12:43:00;97055.19;;;18.25;60.43
13407;BME280;6774;48.208;10.766;2022-11-11T12:45:51;97062.50;;;18.09;61.18
13407;BME280;6774;48.208;10.766;2022-11-11T12:48:58;97060.66;;;18.10;61.53
13407;BME280;6774;48.208;10.766;2022-11-11T12:51:55;97070.81;;;18.21;59.80
13407;BME280;6774;48.208;10.766;2022-11-11T12:54:57;97072.41;;;18.15;60.39
13407;BME280;6774;48.208;10.766;2022-11-11T12:57:58;97075.84;;;18.09;60.67
13407;BME280;6774;48.208;10.766;2022-11-11T13:00:57;97080.06;;;17.90;61.33
13407;BME280;6774;48.208;10.766;2022-11-11T13:03:55;97072.78;;;17.78;61.55
13407;BME280;6774;48.208;10.766;2022-11-11T13:07:05;97076.34;;;16.99;62.50
13407;BME280;6774;48.208;10.766;2022-11-11T13:10:09;97071.63;;;16.80;62.73
13407;BME280;6774;48.208;10.766;2022-11-11T13:13:09;97069.91;;;16.72;63.46
13407;BME280;6774;48.208;10.766;2022-11-11T13:16:00;97071.47;;;16.67;64.31
13407;BME280;6774;48.208;10.766;2022-11-11T13:18:49;97071.78;;;16.57;64.92
13407;BME280;6774;48.208;10.766;2022-11-11T13:21:43;97067.56;;;16.48;65.77
13407;BME280;6774;48.208;10.766;2022-11-11T13:24:34;97072.06;;;16.33;65.82
13407;BME280;6774;48.208;10.766;2022-11-11T13:27:37;97075.47;;;16.27;66.29
13407;BME280;6774;48.208;10.766;2022-11-11T13:30:38;97075.94;;;16.15;66.75
13407;BME280;6774;48.208;10.766;2022-11-11T13:33:37;97074.94;;;16.02;67.38
13407;BME280;6774;48.208;10.766;2022-11-11T13:36:27;97079.31;;;15.80;68.08
13407;BME280;6774;48.208;10.766;2022-11-11T13:39:24;97085.25;;;15.67;68.73
13407;BME280;6774;48.208;10.766;2022-11-11T13:42:20;97083.91;;;15.48;69.63
13407;BME280;6774;48.208;10.766;2022-11-11T13:45:21;97091.06;;;15.25;69.96
13407;BME280;6774;48.208;10.766;2022-11-11T13:48:18;97081.22;;;15.11;71.04
13407;BME280;6774;48.208;10.766;2022-11-11T13:51:21;97097.09;;;14.96;71.08
13407;BME280;6774;48.208;10.766;2022-11-11T13:54:22;97094.97;;;14.91;71.64
13407;BME280;6774;48.208;10.766;2022-11-11T13:57:17;97091.63;;;14.89;72.00
13407;BME280;6774;48.208;10.766;2022-11-11T14:00:25;97099.66;;;14.81;72.11
13407;BME280;6774;48.208;10.766;2022-11-11T14:03:31;97084.50;;;14.59;72.24
13407;BME280;6774;48.208;10.766;2022-11-11T14:09:55;97085.59;;;14.33;72.86
13407;BME280;6774;48.208;10.766;2022-11-11T14:12:43;97080.00;;;14.20;73.06
13407;BME280;6774;48.208;10.766;2022-11-11T14:15:38;97081.53;;;14.06;73.20
13407;BME280;6774;48.208;10.766;2022-11-11T14:18:35;97089.03;;;13.94;73.56
13407;BME280;6774;48.208;10.766;2022-11-11T14:21:43;97087.41;;;13.69;74.17
13407;BME280;6774;48.208;10.766;2022-11-11T14:24:38;97088.28;;;13.53;74.60
13407;BME280;6774;48.208;10.766;2022-11-11T14:27:28;97093.25;;;13.40;74.69
13407;BME280;6774;48.208;10.766;2022-11-11T14:30:34;97098.38;;;13.33;74.97
13407;BME280;6774;48.208;10.766;2022-11-11T14:33:33;97098.38;;;13.25;75.25
13407;BME280;6774;48.208;10.766;2022-11-11T14:36:28;97110.63;;;13.18;75.34
13407;BME280;6774;48.208;10.766;2022-11-11T14:39:29;97106.47;;;13.07;75.32
13407;BME280;6774;48.208;10.766;2022-11-11T14:42:46;97111.75;;;12.91;75.81
13407;BME280;6774;48.208;10.766;2022-11-11T14:46:00;97112.34;;;12.77;75.93
13407;BME280;6774;48.208;10.766;2022-11-11T14:48:59;97120.63;;;12.66;76.15
13407;BME280;6774;48.208;10.766;2022-11-11T14:51:56;97128.69;;;12.56;76.46
13407;BME280;6774;48.208;10.766;2022-11-11T14:54:53;97129.66;;;12.47;76.72
13407;BME280;6774;48.208;10.766;2022-11-11T14:57:46;97120.84;;;12.38;76.87
13407;BME280;6774;48.208;10.766;2022-11-11T15:00:45;97118.94;;;12.22;77.19
13407;BME280;6774;48.208;10.766;2022-11-11T15:03:37;97112.94;;;12.12;77.47
13407;BME280;6774;48.208;10.766;2022-11-11T15:06:31;97112.22;;;12.02;77.70
13407;BME280;6774;48.208;10.766;2022-11-11T15:09:35;97102.97;;;11.98;77.73
13407;BME280;6774;48.208;10.766;2022-11-11T15:12:35;97099.94;;;11.93;77.86
13407;BME280;6774;48.208;10.766;2022-11-11T15:15:26;97113.78;;;11.87;78.02
13407;BME280;6774;48.208;10.766;2022-11-11T15:18:30;97118.56;;;11.83;78.15
13407;BME280;6774;48.208;10.766;2022-11-11T15:21:29;97114.09;;;11.84;78.01
13407;BME280;6774;48.208;10.766;2022-11-11T15:24:26;97120.44;;;11.91;78.01
13407;BME280;6774;48.208;10.766;2022-11-11T15:27:25;97118.47;;;11.93;77.78
13407;BME280;6774;48.208;10.766;2022-11-11T15:30:15;97106.53;;;11.89;77.54